This is the latest recevied weather packets stored in our database for station/object IZ5MJO-13. If no packets are shown the sender has not sent any weather packets the latest 10 day(s).
| Time | Temp. | Humidity | Pressure | Rain* | Wind** | Luminosity | Snow |
|---|---|---|---|---|---|---|---|
| 1787691889 | 22.22° C | 62% | 1005.6 hPa | - | - | - | - |
| 1787690989 | 22.22° C | 62% | 1005.5 hPa | - | - | - | - |
| 1787690089 | 22.22° C | 60% | 1005.4 hPa | - | - | - | - |
| 1787689188 | 22.22° C | 57% | 1005.3 hPa | - | - | - | - |
| 1787688288 | 22.22° C | 59% | 1005.1 hPa | - | - | - | - |
| 1787687387 | 22.22° C | 59% | 1005 hPa | - | - | - | - |
| 1787686487 | 22.78° C | 60% | 1005 hPa | - | - | - | - |
| 1787685587 | 22.78° C | 58% | 1004.8 hPa | - | - | - | - |
| 1787684687 | 22.78° C | 54% | 1004.5 hPa | - | - | - | - |
| 1787683786 | 22.78° C | 57% | 1004.5 hPa | - | - | - | - |
| 1787682886 | 22.78° C | 56% | 1004.3 hPa | - | - | - | - |
| 1787681986 | 23.33° C | 51% | 1004.1 hPa | - | - | - | - |
| 1787681085 | 23.33° C | 53% | 1003.9 hPa | - | - | - | - |
| 1787680195 | 25° C | 49% | 1003.8 hPa | - | - | - | - |
| 1787679294 | 26.67° C | 47% | 1003.7 hPa | - | - | - | - |
| 1787678393 | 28.33° C | 44% | 1003.5 hPa | - | - | - | - |
| 1787677492 | 30° C | 42% | 1003.4 hPa | - | - | - | - |
| 1787676591 | 30° C | 42% | 1003.2 hPa | - | - | - | - |
| 1787675691 | 30.56° C | 41% | 1003.2 hPa | - | - | - | - |
| 1787675046 | 27.22° C | 52% | 1002.6 hPa | - | - | - | - |
| 1787674791 | 30.56° C | 41% | 1003.2 hPa | - | - | - | - |
| 1787673891 | 30.56° C | 40% | 1003.2 hPa | - | - | - | - |
| 1787672991 | 31.11° C | 40% | 1003.1 hPa | - | - | - | - |
| 1787672090 | 31.11° C | 41% | 1003 hPa | - | - | - | - |
| 1787671190 | 30.56° C | 42% | 1002.9 hPa | - | - | - | - |
* Rain since midnight (hover to see other rain measurements)
** Current wind speed in m/s (hover to see current wind gust speed)